createdAt,value
2023-04-15T00:04:08.157Z,77.85
2023-04-15T00:09:16.481Z,78.08
2023-04-15T00:14:22.656Z,77.70
2023-04-15T00:19:29.984Z,77.84
2023-04-15T00:24:37.867Z,77.93
2023-04-15T00:29:44.257Z,78.10
2023-04-15T00:34:51.139Z,77.55
2023-04-15T00:39:59.402Z,77.65
2023-04-15T00:45:07.649Z,77.95
2023-04-15T00:50:15.984Z,79.54
2023-04-15T00:55:25.323Z,78.92
2023-04-15T01:00:33.185Z,78.82
2023-04-15T01:05:40.304Z,79.02
2023-04-15T01:10:49.114Z,79.97
2023-04-15T01:15:57.867Z,79.53
2023-04-15T01:21:04.464Z,80.06
2023-04-15T01:26:12.433Z,81.71
2023-04-15T01:31:18.836Z,83.96
2023-04-15T01:36:25.096Z,86.02
2023-04-15T01:41:34.505Z,87.07
2023-04-15T01:46:41.963Z,87.96
2023-04-15T01:51:49.417Z,88.43
2023-04-15T01:57:01.281Z,88.55
2023-04-15T02:02:08.728Z,88.87
2023-04-15T02:07:16.312Z,89.00
2023-04-15T02:12:25.981Z,88.50
2023-04-15T02:17:36.823Z,89.18
2023-04-15T02:22:44.193Z,90.51
2023-04-15T02:27:53.555Z,92.11
2023-04-15T02:33:02.290Z,92.84
2023-04-15T02:38:10.056Z,92.95
2023-04-15T02:43:19.258Z,94.05
2023-04-15T02:48:27.318Z,93.95
2023-04-15T02:53:34.684Z,95.48
2023-04-15T02:58:43.955Z,96.05
2023-04-15T03:03:51.720Z,96.87
2023-04-15T03:09:00.602Z,97.09
2023-04-15T03:14:11.504Z,97.31
2023-04-15T03:19:23.032Z,97.50
2023-04-15T03:24:30.674Z,98.36
2023-04-15T03:29:40.336Z,98.38
2023-04-15T03:34:48.682Z,98.22
2023-04-15T03:39:56.537Z,98.77
2023-04-15T03:45:05.772Z,98.84
2023-04-15T03:50:13.323Z,99.28
2023-04-15T03:55:21.086Z,99.64
2023-04-15T04:00:29.966Z,99.81
2023-04-15T04:05:39.329Z,99.88
2023-04-15T04:10:47.024Z,99.79
2023-04-15T04:15:56.159Z,99.54
2023-04-15T04:21:03.734Z,99.84
2023-04-15T04:26:11.348Z,99.14
2023-04-15T04:31:20.989Z,98.67
2023-04-15T04:36:28.669Z,99.21
2023-04-15T04:41:36.169Z,98.64
2023-04-15T04:46:45.544Z,98.63
2023-04-15T04:51:53.709Z,98.78
2023-04-15T04:57:02.082Z,98.41
2023-04-15T05:02:11.698Z,98.66
2023-04-15T05:07:21.799Z,98.54
2023-04-15T05:12:30.142Z,98.38
2023-04-15T05:17:39.380Z,98.91
2023-04-15T05:22:46.944Z,98.91
2023-04-15T05:27:54.694Z,98.56
2023-04-15T05:33:03.726Z,98.87
2023-04-15T05:38:11.812Z,99.52
2023-04-15T05:43:19.501Z,98.88
2023-04-15T05:48:28.592Z,99.52
2023-04-15T05:53:36.290Z,99.51
2023-04-15T05:58:44.200Z,99.29
2023-04-15T06:03:56.012Z,99.54
2023-04-15T06:09:04.115Z,99.89
2023-04-15T06:14:12.120Z,99.71
2023-04-15T06:19:21.954Z,100.00
2023-04-15T06:24:29.966Z,100.00
2023-04-15T06:29:37.648Z,99.98
2023-04-15T06:34:46.994Z,99.84
2023-04-15T06:39:54.894Z,100.00
2023-04-15T06:45:02.923Z,100.00
2023-04-15T06:50:13.051Z,100.00
2023-04-15T06:55:21.080Z,100.00
2023-04-15T07:00:29.025Z,100.00
2023-04-15T07:05:38.755Z,100.00
2023-04-15T07:10:46.720Z,100.00
2023-04-15T07:15:54.408Z,100.00
2023-04-15T07:21:03.536Z,100.00
2023-04-15T07:26:11.487Z,100.00
2023-04-15T07:31:19.516Z,100.00
2023-04-15T07:36:29.756Z,100.00
2023-04-15T07:41:37.513Z,100.00
2023-04-15T07:46:45.080Z,100.00
2023-04-15T07:51:54.315Z,100.00
2023-04-15T07:57:03.518Z,100.00
2023-04-15T08:02:12.770Z,100.00
2023-04-15T08:07:21.894Z,100.00
2023-04-15T08:12:30.084Z,100.00
2023-04-15T08:17:37.811Z,100.00
2023-04-15T08:22:48.184Z,100.00
2023-04-15T08:27:58.371Z,100.00
2023-04-15T08:33:06.286Z,100.00
2023-04-15T08:38:15.354Z,100.00
2023-04-15T08:43:27.320Z,100.00
2023-04-15T08:48:36.320Z,100.00
2023-04-15T08:53:46.856Z,100.00
2023-04-15T08:58:55.034Z,100.00
2023-04-15T09:04:06.946Z,100.00
2023-04-15T09:09:16.692Z,100.00
2023-04-15T09:14:24.425Z,100.00
2023-04-15T09:19:33.920Z,100.00
2023-04-15T09:24:43.690Z,100.00
2023-04-15T09:29:53.224Z,100.00
2023-04-15T09:35:12.773Z,100.00
2023-04-15T09:40:36.833Z,100.00
2023-04-15T09:45:51.646Z,100.00
2023-04-15T09:51:01.851Z,100.00
2023-04-15T09:56:11.435Z,100.00
2023-04-15T10:01:19.632Z,100.00
2023-04-15T10:06:29.198Z,100.00
2023-04-15T10:11:38.829Z,100.00
2023-04-15T10:16:50.077Z,100.00
2023-04-15T10:21:58.980Z,100.00
2023-04-15T10:27:08.983Z,100.00
2023-04-15T10:32:20.285Z,100.00
2023-04-15T10:37:38.640Z,100.00
2023-04-15T10:42:47.977Z,100.00
2023-04-15T10:47:59.969Z,100.00
2023-04-15T10:53:11.875Z,100.00
2023-04-15T10:58:24.720Z,100.00
2023-04-15T11:03:44.538Z,100.00
2023-04-15T11:09:03.725Z,100.00
2023-04-15T11:14:16.479Z,100.00
2023-04-15T11:19:24.107Z,100.00
2023-04-15T11:24:31.774Z,100.00
2023-04-15T11:29:41.076Z,100.00
2023-04-15T11:34:49.535Z,100.00
2023-04-15T11:39:58.228Z,100.00
2023-04-15T11:45:15.631Z,100.00
2023-04-15T11:50:25.444Z,100.00
2023-04-15T11:55:32.880Z,100.00
2023-04-15T12:00:43.078Z,100.00
2023-04-15T12:06:19.607Z,100.00
2023-04-15T12:11:36.716Z,100.00
2023-04-15T12:16:48.339Z,100.00
2023-04-15T12:22:01.252Z,100.00
2023-04-15T12:27:10.037Z,100.00
2023-04-15T12:32:21.536Z,100.00
2023-04-15T12:37:28.202Z,100.00
2023-04-15T12:42:35.859Z,100.00
2023-04-15T12:47:43.933Z,100.00
2023-04-15T12:52:51.350Z,100.00
2023-04-15T12:57:57.961Z,100.00
2023-04-15T13:03:07.375Z,100.00
2023-04-15T13:08:14.164Z,100.00
2023-04-15T13:13:20.833Z,100.00
2023-04-15T13:18:28.826Z,100.00
2023-04-15T13:23:37.110Z,100.00
2023-04-15T13:28:43.683Z,99.09
2023-04-15T13:33:51.619Z,98.99
2023-04-15T13:38:58.675Z,99.04
2023-04-15T13:44:06.531Z,98.81
2023-04-15T13:49:15.028Z,98.90
2023-04-15T13:54:21.686Z,96.39
2023-04-15T13:59:28.722Z,95.33
2023-04-15T14:04:37.025Z,95.19
2023-04-15T14:09:44.956Z,92.91
2023-04-15T14:14:51.571Z,94.36
2023-04-15T14:19:59.553Z,95.51
2023-04-15T14:25:07.990Z,93.77
2023-04-15T14:30:15.735Z,94.18
2023-04-15T14:35:24.955Z,94.08
2023-04-15T14:40:32.978Z,93.42
2023-04-15T14:45:45.417Z,92.50
2023-04-15T14:50:55.174Z,92.87
2023-04-15T14:56:02.118Z,92.61
2023-04-15T15:01:10.106Z,92.61
2023-04-15T15:06:18.349Z,93.07
2023-04-15T15:11:25.894Z,92.31
2023-04-15T15:16:33.262Z,93.08
2023-04-15T15:21:41.027Z,92.34
2023-04-15T15:26:48.270Z,92.19
2023-04-15T15:31:54.699Z,92.46
2023-04-15T15:37:03.154Z,92.59
2023-04-15T15:42:10.305Z,92.63
2023-04-15T15:47:18.847Z,91.76
2023-04-15T15:52:27.742Z,91.46
2023-04-15T15:57:35.735Z,91.31
2023-04-15T16:07:54.984Z,91.05
2023-04-15T16:13:02.745Z,90.42
2023-04-15T16:18:11.600Z,90.41
2023-04-15T16:23:21.891Z,90.20
2023-04-15T16:28:29.133Z,90.02
2023-04-15T16:33:36.765Z,89.65
2023-04-15T16:38:48.747Z,89.18
2023-04-15T16:43:56.814Z,89.31
2023-04-15T16:49:03.968Z,89.33
2023-04-15T16:54:12.901Z,89.17
2023-04-15T16:59:20.507Z,89.53
2023-04-15T17:04:28.210Z,89.75
2023-04-15T17:09:37.233Z,89.58
2023-04-15T17:14:43.956Z,89.26
2023-04-15T17:19:51.970Z,89.86
2023-04-15T17:25:05.473Z,89.81
2023-04-15T17:30:19.460Z,89.26
2023-04-15T17:35:47.362Z,89.68
2023-04-15T17:41:18.263Z,89.86
2023-04-15T17:46:46.335Z,89.81
2023-04-15T17:52:14.545Z,89.41
2023-04-15T17:57:49.768Z,88.96
2023-04-15T18:03:19.172Z,88.97
2023-04-15T18:08:46.872Z,89.43
2023-04-15T18:14:30.708Z,90.16
2023-04-15T18:20:01.407Z,90.10
2023-04-15T18:25:13.496Z,90.55
2023-04-15T18:30:24.473Z,90.70
2023-04-15T18:35:35.380Z,90.75
2023-04-15T18:40:43.751Z,90.71
2023-04-15T18:45:55.837Z,91.03
2023-04-15T18:51:03.956Z,91.15
2023-04-15T18:56:16.073Z,91.38
2023-04-15T19:01:27.641Z,91.42
2023-04-15T19:06:45.472Z,91.46
2023-04-15T19:11:54.634Z,91.65
2023-04-15T19:17:05.286Z,91.79
2023-04-15T19:22:14.710Z,91.94
2023-04-15T19:27:26.671Z,91.56
2023-04-15T19:32:37.533Z,91.90
2023-04-15T19:37:45.624Z,91.68
2023-04-15T19:42:55.461Z,91.61
2023-04-15T19:48:07.047Z,91.44
2023-04-15T19:53:22.126Z,91.88
2023-04-15T19:58:33.385Z,92.02
2023-04-15T20:03:46.515Z,91.76
2023-04-15T20:08:55.661Z,91.38
2023-04-15T20:14:05.140Z,91.22
2023-04-15T20:19:14.732Z,91.03
2023-04-15T20:24:22.268Z,90.44
2023-04-15T20:29:30.357Z,90.84
2023-04-15T20:34:41.322Z,90.04
2023-04-15T20:39:53.242Z,90.07
2023-04-15T20:45:01.253Z,89.67
2023-04-15T20:50:15.026Z,89.26
2023-04-15T20:55:22.585Z,89.73
2023-04-15T21:00:33.467Z,89.28
2023-04-15T21:05:42.320Z,88.99
2023-04-15T21:10:49.751Z,89.53
2023-04-15T21:15:59.055Z,89.53
2023-04-15T21:21:08.060Z,90.11
2023-04-15T21:26:16.505Z,89.76
2023-04-15T21:31:24.828Z,89.78
2023-04-15T21:36:34.298Z,90.29
2023-04-15T21:41:41.162Z,89.96
2023-04-15T21:46:48.220Z,90.34
2023-04-15T21:52:01.439Z,90.35
2023-04-15T21:57:08.284Z,90.72
2023-04-15T22:02:15.462Z,90.68
2023-04-15T22:07:24.069Z,90.70
2023-04-15T22:12:31.771Z,90.94
2023-04-15T22:17:38.776Z,91.33
2023-04-15T22:22:47.821Z,91.50
2023-04-15T22:27:54.432Z,91.44
2023-04-15T22:33:01.257Z,91.51
2023-04-15T22:38:09.836Z,91.39
2023-04-15T22:43:16.817Z,91.47
2023-04-15T22:48:24.073Z,91.45
2023-04-15T22:53:32.024Z,91.81
2023-04-15T22:58:38.927Z,91.91
2023-04-15T23:03:56.490Z,91.78
2023-04-15T23:09:14.652Z,92.10
2023-04-15T23:14:21.765Z,92.45
2023-04-15T23:19:28.455Z,92.36
2023-04-15T23:24:36.864Z,92.61
2023-04-15T23:29:44.732Z,93.02
2023-04-15T23:34:52.535Z,93.02
2023-04-15T23:40:00.860Z,92.99
2023-04-15T23:45:11.711Z,93.08
2023-04-15T23:50:21.865Z,93.17
2023-04-15T23:55:30.797Z,93.80
